sensor_id;sensor_type;location;lat;lon;timestamp;temperature;humidity
26745;DHT22;14342;50.960;13.880;2024-01-15T00:00:46;2.20;99.90
26745;DHT22;14342;50.960;13.880;2024-01-15T00:01:48;2.20;99.90
26745;DHT22;14342;50.960;13.880;2024-01-15T00:02:49;2.10;99.90
26745;DHT22;14342;50.960;13.880;2024-01-15T00:03:50;2.10;99.90
26745;DHT22;14342;50.960;13.880;2024-01-15T00:04:51;2.20;99.90
26745;DHT22;14342;50.960;13.880;2024-01-15T00:05:52;2.20;99.90
26745;DHT22;14342;50.960;13.880;2024-01-15T00:06:53;2.20;99.90
26745;DHT22;14342;50.960;13.880;2024-01-15T00:07:54;2.20;99.90
26745;DHT22;14342;50.960;13.880;2024-01-15T00:08:55;2.20;99.90
26745;DHT22;14342;50.960;13.880;2024-01-15T00:09:58;2.20;99.90
26745;DHT22;14342;50.960;13.880;2024-01-15T00:11:00;2.10;99.90
26745;DHT22;14342;50.960;13.880;2024-01-15T00:12:01;2.10;99.90
26745;DHT22;14342;50.960;13.880;2024-01-15T00:13:02;2.10;99.90
26745;DHT22;14342;50.960;13.880;2024-01-15T00:14:04;2.20;99.90
26745;DHT22;14342;50.960;13.880;2024-01-15T00:15:05;2.10;99.90
26745;DHT22;14342;50.960;13.880;2024-01-15T00:16:06;2.20;99.90
26745;DHT22;14342;50.960;13.880;2024-01-15T00:17:07;2.20;99.90
26745;DHT22;14342;50.960;13.880;2024-01-15T00:18:08;2.20;99.90
26745;DHT22;14342;50.960;13.880;2024-01-15T00:19:09;2.00;99.90
26745;DHT22;14342;50.960;13.880;2024-01-15T00:20:11;2.00;99.90
26745;DHT22;14342;50.960;13.880;2024-01-15T00:21:11;1.90;99.90
26745;DHT22;14342;50.960;13.880;2024-01-15T00:22:13;1.90;99.90
26745;DHT22;14342;50.960;13.880;2024-01-15T00:23:13;1.80;99.90
26745;DHT22;14342;50.960;13.880;2024-01-15T00:24:15;1.90;99.90
26745;DHT22;14342;50.960;13.880;2024-01-15T00:25:16;1.90;99.90
26745;DHT22;14342;50.960;13.880;2024-01-15T00:26:19;1.90;99.90
26745;DHT22;14342;50.960;13.880;2024-01-15T00:27:20;2.00;99.90
26745;DHT22;14342;50.960;13.880;2024-01-15T00:28:21;1.90;99.90
26745;DHT22;14342;50.960;13.880;2024-01-15T00:29:22;1.90;99.90
26745;DHT22;14342;50.960;13.880;2024-01-15T00:30:22;1.80;99.90
26745;DHT22;14342;50.960;13.880;2024-01-15T00:31:24;1.80;99.90
26745;DHT22;14342;50.960;13.880;2024-01-15T00:32:24;1.80;99.90
26745;DHT22;14342;50.960;13.880;2024-01-15T00:33:26;1.80;99.90
26745;DHT22;14342;50.960;13.880;2024-01-15T00:34:26;1.80;99.90
26745;DHT22;14342;50.960;13.880;2024-01-15T00:35:28;1.70;99.90
26745;DHT22;14342;50.960;13.880;2024-01-15T00:36:28;1.70;99.90
26745;DHT22;14342;50.960;13.880;2024-01-15T00:37:30;1.60;99.90
26745;DHT22;14342;50.960;13.880;2024-01-15T00:38:30;1.70;99.90
26745;DHT22;14342;50.960;13.880;2024-01-15T00:39:32;1.70;99.90
26745;DHT22;14342;50.960;13.880;2024-01-15T00:40:32;1.70;99.90
26745;DHT22;14342;50.960;13.880;2024-01-15T00:41:35;1.70;99.90
26745;DHT22;14342;50.960;13.880;2024-01-15T00:42:36;1.60;99.90
26745;DHT22;14342;50.960;13.880;2024-01-15T00:43:37;1.60;99.90
26745;DHT22;14342;50.960;13.880;2024-01-15T00:44:38;1.60;99.90
26745;DHT22;14342;50.960;13.880;2024-01-15T00:45:39;1.60;99.90
26745;DHT22;14342;50.960;13.880;2024-01-15T00:46:43;1.60;99.90
26745;DHT22;14342;50.960;13.880;2024-01-15T00:47:45;1.60;99.90
26745;DHT22;14342;50.960;13.880;2024-01-15T00:48:46;1.70;99.90
26745;DHT22;14342;50.960;13.880;2024-01-15T00:49:47;1.60;99.90
26745;DHT22;14342;50.960;13.880;2024-01-15T00:50:48;1.60;99.90
26745;DHT22;14342;50.960;13.880;2024-01-15T00:51:48;1.60;99.90
26745;DHT22;14342;50.960;13.880;2024-01-15T00:52:50;1.60;99.90
26745;DHT22;14342;50.960;13.880;2024-01-15T00:53:50;1.60;99.90
26745;DHT22;14342;50.960;13.880;2024-01-15T00:54:52;1.60;99.90
26745;DHT22;14342;50.960;13.880;2024-01-15T00:55:52;1.60;99.90
26745;DHT22;14342;50.960;13.880;2024-01-15T00:56:55;1.60;99.90
26745;DHT22;14342;50.960;13.880;2024-01-15T00:57:56;1.60;99.90
26745;DHT22;14342;50.960;13.880;2024-01-15T00:58:57;1.60;99.90
26745;DHT22;14342;50.960;13.880;2024-01-15T00:59:58;1.70;99.90
26745;DHT22;14342;50.960;13.880;2024-01-15T01:00:58;1.70;99.90
26745;DHT22;14342;50.960;13.880;2024-01-15T01:02:00;1.70;99.90
26745;DHT22;14342;50.960;13.880;2024-01-15T01:03:00;1.60;99.90
26745;DHT22;14342;50.960;13.880;2024-01-15T01:04:02;1.60;99.90
26745;DHT22;14342;50.960;13.880;2024-01-15T01:05:03;1.60;99.90
26745;DHT22;14342;50.960;13.880;2024-01-15T01:06:05;1.60;99.90
26745;DHT22;14342;50.960;13.880;2024-01-15T01:07:05;1.50;99.90
26745;DHT22;14342;50.960;13.880;2024-01-15T01:08:07;1.50;99.90
26745;DHT22;14342;50.960;13.880;2024-01-15T01:09:07;1.50;99.90
26745;DHT22;14342;50.960;13.880;2024-01-15T01:10:09;1.50;99.90
26745;DHT22;14342;50.960;13.880;2024-01-15T01:11:12;1.50;99.90
26745;DHT22;14342;50.960;13.880;2024-01-15T01:12:15;1.50;99.90
26745;DHT22;14342;50.960;13.880;2024-01-15T01:13:16;1.60;99.90
26745;DHT22;14342;50.960;13.880;2024-01-15T01:14:17;1.60;99.90
26745;DHT22;14342;50.960;13.880;2024-01-15T01:15:18;1.50;99.90
26745;DHT22;14342;50.960;13.880;2024-01-15T01:16:20;1.50;99.90
26745;DHT22;14342;50.960;13.880;2024-01-15T01:17:20;1.60;99.90
26745;DHT22;14342;50.960;13.880;2024-01-15T01:18:22;1.70;99.90
26745;DHT22;14342;50.960;13.880;2024-01-15T01:19:22;1.60;99.90
26745;DHT22;14342;50.960;13.880;2024-01-15T01:20:25;1.60;99.90
26745;DHT22;14342;50.960;13.880;2024-01-15T01:21:26;1.50;99.90
26745;DHT22;14342;50.960;13.880;2024-01-15T01:22:27;1.60;99.90
26745;DHT22;14342;50.960;13.880;2024-01-15T01:23:28;1.50;99.90
26745;DHT22;14342;50.960;13.880;2024-01-15T01:24:29;1.50;99.90
26745;DHT22;14342;50.960;13.880;2024-01-15T01:25:30;1.50;99.90
26745;DHT22;14342;50.960;13.880;2024-01-15T01:26:31;1.50;99.90
26745;DHT22;14342;50.960;13.880;2024-01-15T01:27:33;1.40;99.90
26745;DHT22;14342;50.960;13.880;2024-01-15T01:28:33;1.40;99.90
26745;DHT22;14342;50.960;13.880;2024-01-15T01:29:35;1.40;99.90
26745;DHT22;14342;50.960;13.880;2024-01-15T01:30:35;1.40;99.90
26745;DHT22;14342;50.960;13.880;2024-01-15T01:31:41;1.50;99.90
26745;DHT22;14342;50.960;13.880;2024-01-15T01:32:42;1.50;99.90
26745;DHT22;14342;50.960;13.880;2024-01-15T01:33:43;1.50;99.90
26745;DHT22;14342;50.960;13.880;2024-01-15T01:34:44;1.60;99.90
26745;DHT22;14342;50.960;13.880;2024-01-15T01:35:45;1.50;99.90
26745;DHT22;14342;50.960;13.880;2024-01-15T01:36:47;1.50;99.90
26745;DHT22;14342;50.960;13.880;2024-01-15T01:37:48;1.50;99.90
26745;DHT22;14342;50.960;13.880;2024-01-15T01:38:49;1.60;99.90
26745;DHT22;14342;50.960;13.880;2024-01-15T01:39:50;1.60;99.90
26745;DHT22;14342;50.960;13.880;2024-01-15T01:40:51;1.70;99.90
26745;DHT22;14342;50.960;13.880;2024-01-15T01:41:52;1.70;99.90
26745;DHT22;14342;50.960;13.880;2024-01-15T01:42:54;1.70;99.90
26745;DHT22;14342;50.960;13.880;2024-01-15T01:43:55;2.00;99.90
26745;DHT22;14342;50.960;13.880;2024-01-15T01:44:56;1.70;99.90
26745;DHT22;14342;50.960;13.880;2024-01-15T01:45:57;1.60;99.90
26745;DHT22;14342;50.960;13.880;2024-01-15T01:46:58;1.60;99.90
26745;DHT22;14342;50.960;13.880;2024-01-15T01:48:00;1.60;99.90
26745;DHT22;14342;50.960;13.880;2024-01-15T01:49:01;1.60;99.90
26745;DHT22;14342;50.960;13.880;2024-01-15T01:50:05;1.60;99.90
26745;DHT22;14342;50.960;13.880;2024-01-15T01:51:06;1.60;99.90
26745;DHT22;14342;50.960;13.880;2024-01-15T01:52:09;1.60;99.90
26745;DHT22;14342;50.960;13.880;2024-01-15T01:53:09;1.60;99.90
26745;DHT22;14342;50.960;13.880;2024-01-15T01:54:11;1.60;99.90
26745;DHT22;14342;50.960;13.880;2024-01-15T01:55:14;1.60;99.90
26745;DHT22;14342;50.960;13.880;2024-01-15T01:56:15;1.50;99.90
26745;DHT22;14342;50.960;13.880;2024-01-15T01:57:16;1.60;99.90
26745;DHT22;14342;50.960;13.880;2024-01-15T01:58:19;1.60;99.90
26745;DHT22;14342;50.960;13.880;2024-01-15T01:59:21;1.60;99.90
26745;DHT22;14342;50.960;13.880;2024-01-15T02:00:23;1.60;99.90
26745;DHT22;14342;50.960;13.880;2024-01-15T02:01:24;1.60;99.90
26745;DHT22;14342;50.960;13.880;2024-01-15T02:02:25;1.50;99.90
26745;DHT22;14342;50.960;13.880;2024-01-15T02:03:26;1.50;99.90
26745;DHT22;14342;50.960;13.880;2024-01-15T02:04:28;1.60;99.90
26745;DHT22;14342;50.960;13.880;2024-01-15T02:05:28;1.50;99.90
26745;DHT22;14342;50.960;13.880;2024-01-15T02:06:30;1.50;99.90
26745;DHT22;14342;50.960;13.880;2024-01-15T02:07:31;1.50;99.90
26745;DHT22;14342;50.960;13.880;2024-01-15T02:08:33;1.40;99.90
26745;DHT22;14342;50.960;13.880;2024-01-15T02:09:34;1.40;99.90
26745;DHT22;14342;50.960;13.880;2024-01-15T02:10:36;1.50;99.90
26745;DHT22;14342;50.960;13.880;2024-01-15T02:11:36;1.50;99.90
26745;DHT22;14342;50.960;13.880;2024-01-15T02:12:38;1.50;99.90
26745;DHT22;14342;50.960;13.880;2024-01-15T02:13:40;1.50;99.90
26745;DHT22;14342;50.960;13.880;2024-01-15T02:14:41;1.70;99.90
26745;DHT22;14342;50.960;13.880;2024-01-15T02:15:42;1.50;99.90
26745;DHT22;14342;50.960;13.880;2024-01-15T02:16:42;1.60;99.90
26745;DHT22;14342;50.960;13.880;2024-01-15T02:17:56;1.60;99.90
26745;DHT22;14342;50.960;13.880;2024-01-15T02:18:57;1.60;99.90
26745;DHT22;14342;50.960;13.880;2024-01-15T02:19:59;1.70;99.90
26745;DHT22;14342;50.960;13.880;2024-01-15T02:20:59;1.80;99.90
26745;DHT22;14342;50.960;13.880;2024-01-15T02:22:01;1.80;99.90
26745;DHT22;14342;50.960;13.880;2024-01-15T02:23:06;1.70;99.90
26745;DHT22;14342;50.960;13.880;2024-01-15T02:24:08;1.60;99.90
26745;DHT22;14342;50.960;13.880;2024-01-15T02:25:09;1.30;99.90
26745;DHT22;14342;50.960;13.880;2024-01-15T02:26:11;1.70;99.90
26745;DHT22;14342;50.960;13.880;2024-01-15T02:27:11;1.70;99.90
26745;DHT22;14342;50.960;13.880;2024-01-15T02:28:13;1.70;99.90
26745;DHT22;14342;50.960;13.880;2024-01-15T02:29:15;1.70;99.90
26745;DHT22;14342;50.960;13.880;2024-01-15T02:30:16;1.60;99.90
26745;DHT22;14342;50.960;13.880;2024-01-15T02:31:17;1.60;99.90
26745;DHT22;14342;50.960;13.880;2024-01-15T02:32:18;1.60;99.90
26745;DHT22;14342;50.960;13.880;2024-01-15T02:33:19;1.60;99.90
26745;DHT22;14342;50.960;13.880;2024-01-15T02:34:20;1.90;99.90
26745;DHT22;14342;50.960;13.880;2024-01-15T02:35:21;1.70;99.90
26745;DHT22;14342;50.960;13.880;2024-01-15T02:36:21;1.60;99.90
26745;DHT22;14342;50.960;13.880;2024-01-15T02:37:23;1.60;99.90
26745;DHT22;14342;50.960;13.880;2024-01-15T02:38:25;1.60;99.90
26745;DHT22;14342;50.960;13.880;2024-01-15T02:39:26;1.60;99.90
26745;DHT22;14342;50.960;13.880;2024-01-15T02:40:27;1.60;99.90
26745;DHT22;14342;50.960;13.880;2024-01-15T02:41:28;1.60;99.90
26745;DHT22;14342;50.960;13.880;2024-01-15T02:42:29;1.70;99.90
26745;DHT22;14342;50.960;13.880;2024-01-15T02:43:30;1.60;99.90
26745;DHT22;14342;50.960;13.880;2024-01-15T02:44:31;1.70;99.90
26745;DHT22;14342;50.960;13.880;2024-01-15T02:45:32;1.60;99.90
26745;DHT22;14342;50.960;13.880;2024-01-15T02:46:33;1.50;99.90
26745;DHT22;14342;50.960;13.880;2024-01-15T02:47:34;1.40;99.90
26745;DHT22;14342;50.960;13.880;2024-01-15T02:48:35;1.50;99.90
26745;DHT22;14342;50.960;13.880;2024-01-15T02:49:36;1.50;99.90
26745;DHT22;14342;50.960;13.880;2024-01-15T02:50:38;1.40;99.90
26745;DHT22;14342;50.960;13.880;2024-01-15T02:51:38;1.40;99.90
26745;DHT22;14342;50.960;13.880;2024-01-15T02:52:40;1.50;99.90
26745;DHT22;14342;50.960;13.880;2024-01-15T02:53:42;1.40;99.90
26745;DHT22;14342;50.960;13.880;2024-01-15T02:54:44;1.40;99.90
26745;DHT22;14342;50.960;13.880;2024-01-15T02:55:44;1.40;99.90
26745;DHT22;14342;50.960;13.880;2024-01-15T02:56:46;1.40;99.90
26745;DHT22;14342;50.960;13.880;2024-01-15T02:57:46;1.40;99.90
26745;DHT22;14342;50.960;13.880;2024-01-15T02:58:47;1.40;99.90
26745;DHT22;14342;50.960;13.880;2024-01-15T02:59:49;1.40;99.90
26745;DHT22;14342;50.960;13.880;2024-01-15T03:00:49;1.30;99.90
26745;DHT22;14342;50.960;13.880;2024-01-15T03:01:50;1.30;99.90
26745;DHT22;14342;50.960;13.880;2024-01-15T03:02:51;1.30;99.90
26745;DHT22;14342;50.960;13.880;2024-01-15T03:03:52;1.20;99.90
26745;DHT22;14342;50.960;13.880;2024-01-15T03:04:55;1.20;99.90
26745;DHT22;14342;50.960;13.880;2024-01-15T03:05:56;1.20;99.90
26745;DHT22;14342;50.960;13.880;2024-01-15T03:06:56;1.20;99.90
26745;DHT22;14342;50.960;13.880;2024-01-15T03:07:58;1.20;99.90
26745;DHT22;14342;50.960;13.880;2024-01-15T03:08:59;1.20;99.90
26745;DHT22;14342;50.960;13.880;2024-01-15T03:10:01;1.20;99.90
26745;DHT22;14342;50.960;13.880;2024-01-15T03:11:02;1.40;99.90
26745;DHT22;14342;50.960;13.880;2024-01-15T03:12:04;1.20;99.90
26745;DHT22;14342;50.960;13.880;2024-01-15T03:13:04;1.20;99.90
26745;DHT22;14342;50.960;13.880;2024-01-15T03:14:05;1.20;99.90
26745;DHT22;14342;50.960;13.880;2024-01-15T03:15:06;1.20;99.90
26745;DHT22;14342;50.960;13.880;2024-01-15T03:16:07;1.20;99.90
26745;DHT22;14342;50.960;13.880;2024-01-15T03:17:08;1.10;99.90
26745;DHT22;14342;50.960;13.880;2024-01-15T03:18:09;1.10;99.90
26745;DHT22;14342;50.960;13.880;2024-01-15T03:19:10;1.20;99.90
26745;DHT22;14342;50.960;13.880;2024-01-15T03:20:11;1.20;99.90
26745;DHT22;14342;50.960;13.880;2024-01-15T03:21:12;1.20;99.90
26745;DHT22;14342;50.960;13.880;2024-01-15T03:22:13;1.20;99.90
26745;DHT22;14342;50.960;13.880;2024-01-15T03:23:14;1.20;99.90
26745;DHT22;14342;50.960;13.880;2024-01-15T03:24:16;1.20;99.90
26745;DHT22;14342;50.960;13.880;2024-01-15T03:25:17;1.20;99.90
26745;DHT22;14342;50.960;13.880;2024-01-15T03:26:18;1.20;99.90
26745;DHT22;14342;50.960;13.880;2024-01-15T03:27:19;1.20;99.90
26745;DHT22;14342;50.960;13.880;2024-01-15T03:28:20;1.20;99.90
26745;DHT22;14342;50.960;13.880;2024-01-15T03:29:21;1.20;99.90
26745;DHT22;14342;50.960;13.880;2024-01-15T03:30:22;1.20;99.90
26745;DHT22;14342;50.960;13.880;2024-01-15T03:31:23;1.30;99.90
26745;DHT22;14342;50.960;13.880;2024-01-15T03:32:24;1.20;99.90
26745;DHT22;14342;50.960;13.880;2024-01-15T03:33:24;1.20;99.90
26745;DHT22;14342;50.960;13.880;2024-01-15T03:34:26;1.20;99.90
26745;DHT22;14342;50.960;13.880;2024-01-15T03:35:27;1.20;99.90
26745;DHT22;14342;50.960;13.880;2024-01-15T03:36:29;1.20;99.90
26745;DHT22;14342;50.960;13.880;2024-01-15T03:37:31;1.10;99.90
26745;DHT22;14342;50.960;13.880;2024-01-15T03:38:31;1.10;99.90
26745;DHT22;14342;50.960;13.880;2024-01-15T03:39:34;1.10;99.90
26745;DHT22;14342;50.960;13.880;2024-01-15T03:40:34;1.20;99.90
26745;DHT22;14342;50.960;13.880;2024-01-15T03:41:36;1.10;99.90
26745;DHT22;14342;50.960;13.880;2024-01-15T03:42:36;1.10;99.90
26745;DHT22;14342;50.960;13.880;2024-01-15T03:43:38;1.10;99.90
26745;DHT22;14342;50.960;13.880;2024-01-15T03:44:39;1.10;99.90
26745;DHT22;14342;50.960;13.880;2024-01-15T03:45:41;1.20;99.90
26745;DHT22;14342;50.960;13.880;2024-01-15T03:46:41;1.10;99.90
26745;DHT22;14342;50.960;13.880;2024-01-15T03:47:43;1.10;99.90
26745;DHT22;14342;50.960;13.880;2024-01-15T03:48:43;1.10;99.90
26745;DHT22;14342;50.960;13.880;2024-01-15T03:49:45;1.10;99.90
26745;DHT22;14342;50.960;13.880;2024-01-15T03:50:45;1.10;99.90
26745;DHT22;14342;50.960;13.880;2024-01-15T03:51:47;1.10;99.90
26745;DHT22;14342;50.960;13.880;2024-01-15T03:52:47;1.10;99.90
26745;DHT22;14342;50.960;13.880;2024-01-15T03:53:49;1.10;99.90
26745;DHT22;14342;50.960;13.880;2024-01-15T03:54:51;1.10;99.90
26745;DHT22;14342;50.960;13.880;2024-01-15T03:55:52;1.30;99.90
26745;DHT22;14342;50.960;13.880;2024-01-15T03:56:53;1.20;99.90
26745;DHT22;14342;50.960;13.880;2024-01-15T03:57:54;1.20;99.90
26745;DHT22;14342;50.960;13.880;2024-01-15T03:58:55;1.10;99.90
26745;DHT22;14342;50.960;13.880;2024-01-15T03:59:56;1.10;99.90
26745;DHT22;14342;50.960;13.880;2024-01-15T04:00:57;1.10;99.90
26745;DHT22;14342;50.960;13.880;2024-01-15T04:01:58;1.10;99.90
26745;DHT22;14342;50.960;13.880;2024-01-15T04:02:59;1.30;99.90
26745;DHT22;14342;50.960;13.880;2024-01-15T04:04:00;1.00;99.90
26745;DHT22;14342;50.960;13.880;2024-01-15T04:05:01;1.10;99.90
26745;DHT22;14342;50.960;13.880;2024-01-15T04:06:01;1.00;99.90
26745;DHT22;14342;50.960;13.880;2024-01-15T04:07:03;0.90;99.90
26745;DHT22;14342;50.960;13.880;2024-01-15T04:08:04;0.90;99.90
26745;DHT22;14342;50.960;13.880;2024-01-15T04:09:06;0.90;99.90
26745;DHT22;14342;50.960;13.880;2024-01-15T04:10:08;1.00;99.90
26745;DHT22;14342;50.960;13.880;2024-01-15T04:11:10;0.90;99.90
26745;DHT22;14342;50.960;13.880;2024-01-15T04:12:11;0.90;99.90
26745;DHT22;14342;50.960;13.880;2024-01-15T04:13:12;0.90;99.90
26745;DHT22;14342;50.960;13.880;2024-01-15T04:14:13;0.90;99.90
26745;DHT22;14342;50.960;13.880;2024-01-15T04:15:14;0.90;99.90
26745;DHT22;14342;50.960;13.880;2024-01-15T04:16:15;0.90;99.90
26745;DHT22;14342;50.960;13.880;2024-01-15T04:17:16;0.90;99.90
26745;DHT22;14342;50.960;13.880;2024-01-15T04:18:18;1.10;99.90
26745;DHT22;14342;50.960;13.880;2024-01-15T04:19:19;0.80;99.90
26745;DHT22;14342;50.960;13.880;2024-01-15T04:20:20;0.80;99.90
26745;DHT22;14342;50.960;13.880;2024-01-15T04:21:21;1.10;99.90
26745;DHT22;14342;50.960;13.880;2024-01-15T04:22:22;0.80;99.90
26745;DHT22;14342;50.960;13.880;2024-01-15T04:23:24;0.70;99.90
26745;DHT22;14342;50.960;13.880;2024-01-15T04:24:24;0.70;99.90
26745;DHT22;14342;50.960;13.880;2024-01-15T04:25:27;0.70;99.90
26745;DHT22;14342;50.960;13.880;2024-01-15T04:26:28;0.70;99.90
26745;DHT22;14342;50.960;13.880;2024-01-15T04:27:28;0.70;99.90
26745;DHT22;14342;50.960;13.880;2024-01-15T04:28:30;0.60;99.90
26745;DHT22;14342;50.960;13.880;2024-01-15T04:29:30;0.60;99.90
26745;DHT22;14342;50.960;13.880;2024-01-15T04:30:31;0.60;99.90
26745;DHT22;14342;50.960;13.880;2024-01-15T04:31:32;0.60;99.90
26745;DHT22;14342;50.960;13.880;2024-01-15T04:32:33;0.70;99.90
26745;DHT22;14342;50.960;13.880;2024-01-15T04:33:34;0.60;99.90
26745;DHT22;14342;50.960;13.880;2024-01-15T04:34:35;0.60;99.90
26745;DHT22;14342;50.960;13.880;2024-01-15T04:35:37;0.60;99.90
26745;DHT22;14342;50.960;13.880;2024-01-15T04:36:38;0.60;99.90
26745;DHT22;14342;50.960;13.880;2024-01-15T04:37:40;0.60;99.90
26745;DHT22;14342;50.960;13.880;2024-01-15T04:38:40;0.60;99.90
26745;DHT22;14342;50.960;13.880;2024-01-15T04:39:42;0.50;99.90
26745;DHT22;14342;50.960;13.880;2024-01-15T04:40:44;0.60;99.90
26745;DHT22;14342;50.960;13.880;2024-01-15T04:41:45;0.60;99.90
26745;DHT22;14342;50.960;13.880;2024-01-15T04:42:46;0.60;99.90
26745;DHT22;14342;50.960;13.880;2024-01-15T04:43:47;0.60;99.90
26745;DHT22;14342;50.960;13.880;2024-01-15T04:44:48;0.60;99.90
26745;DHT22;14342;50.960;13.880;2024-01-15T04:45:49;0.60;99.90
26745;DHT22;14342;50.960;13.880;2024-01-15T04:46:50;0.70;99.90
26745;DHT22;14342;50.960;13.880;2024-01-15T04:47:51;0.60;99.90
26745;DHT22;14342;50.960;13.880;2024-01-15T04:48:52;0.60;99.90
26745;DHT22;14342;50.960;13.880;2024-01-15T04:49:52;0.60;99.90
26745;DHT22;14342;50.960;13.880;2024-01-15T04:50:54;0.60;99.90
26745;DHT22;14342;50.960;13.880;2024-01-15T04:51:54;0.60;99.90
26745;DHT22;14342;50.960;13.880;2024-01-15T04:52:56;0.60;99.90
26745;DHT22;14342;50.960;13.880;2024-01-15T04:53:56;0.60;99.90
26745;DHT22;14342;50.960;13.880;2024-01-15T04:54:58;0.60;99.90
26745;DHT22;14342;50.960;13.880;2024-01-15T04:56:00;0.60;99.90
26745;DHT22;14342;50.960;13.880;2024-01-15T04:57:01;0.20;99.90
26745;DHT22;14342;50.960;13.880;2024-01-15T04:58:02;0.50;99.90
26745;DHT22;14342;50.960;13.880;2024-01-15T04:59:04;0.50;99.90
26745;DHT22;14342;50.960;13.880;2024-01-15T05:00:05;0.50;99.90
26745;DHT22;14342;50.960;13.880;2024-01-15T05:01:05;0.50;99.90
26745;DHT22;14342;50.960;13.880;2024-01-15T05:02:09;0.50;99.90
26745;DHT22;14342;50.960;13.880;2024-01-15T05:03:09;0.50;99.90
26745;DHT22;14342;50.960;13.880;2024-01-15T05:04:11;0.50;99.90
26745;DHT22;14342;50.960;13.880;2024-01-15T05:05:11;0.50;99.90
26745;DHT22;14342;50.960;13.880;2024-01-15T05:06:13;0.50;99.90
26745;DHT22;14342;50.960;13.880;2024-01-15T05:07:13;0.50;99.90
26745;DHT22;14342;50.960;13.880;2024-01-15T05:08:15;0.50;99.90
26745;DHT22;14342;50.960;13.880;2024-01-15T05:09:15;0.50;99.90
26745;DHT22;14342;50.960;13.880;2024-01-15T05:10:18;0.50;99.90
26745;DHT22;14342;50.960;13.880;2024-01-15T05:11:20;0.50;99.90
26745;DHT22;14342;50.960;13.880;2024-01-15T05:12:21;0.40;99.90
26745;DHT22;14342;50.960;13.880;2024-01-15T05:13:22;0.50;99.90
26745;DHT22;14342;50.960;13.880;2024-01-15T05:14:24;0.50;99.90
26745;DHT22;14342;50.960;13.880;2024-01-15T05:15:24;0.40;99.90
26745;DHT22;14342;50.960;13.880;2024-01-15T05:16:26;0.40;99.90
26745;DHT22;14342;50.960;13.880;2024-01-15T05:17:26;0.40;99.90
26745;DHT22;14342;50.960;13.880;2024-01-15T05:18:28;0.40;99.90
26745;DHT22;14342;50.960;13.880;2024-01-15T05:19:28;0.50;99.90
26745;DHT22;14342;50.960;13.880;2024-01-15T05:20:32;0.50;99.90
26745;DHT22;14342;50.960;13.880;2024-01-15T05:21:32;0.40;99.90
26745;DHT22;14342;50.960;13.880;2024-01-15T05:22:34;0.40;99.90
26745;DHT22;14342;50.960;13.880;2024-01-15T05:23:34;0.50;99.90
26745;DHT22;14342;50.960;13.880;2024-01-15T05:24:36;0.50;99.90
26745;DHT22;14342;50.960;13.880;2024-01-15T05:25:37;0.60;99.90
26745;DHT22;14342;50.960;13.880;2024-01-15T05:26:39;0.70;99.90
26745;DHT22;14342;50.960;13.880;2024-01-15T05:27:40;0.80;99.90
26745;DHT22;14342;50.960;13.880;2024-01-15T05:28:42;0.70;99.90
26745;DHT22;14342;50.960;13.880;2024-01-15T05:29:43;0.70;99.90
26745;DHT22;14342;50.960;13.880;2024-01-15T05:30:43;0.80;99.90
26745;DHT22;14342;50.960;13.880;2024-01-15T05:31:45;0.90;99.90
26745;DHT22;14342;50.960;13.880;2024-01-15T05:32:45;0.80;99.90
26745;DHT22;14342;50.960;13.880;2024-01-15T05:33:47;0.80;99.90
26745;DHT22;14342;50.960;13.880;2024-01-15T05:34:47;0.80;99.90
26745;DHT22;14342;50.960;13.880;2024-01-15T05:35:49;0.70;99.90
26745;DHT22;14342;50.960;13.880;2024-01-15T05:36:50;0.70;99.90
26745;DHT22;14342;50.960;13.880;2024-01-15T05:37:52;0.70;99.90
26745;DHT22;14342;50.960;13.880;2024-01-15T05:38:52;0.80;99.90
26745;DHT22;14342;50.960;13.880;2024-01-15T05:39:54;0.80;99.90
26745;DHT22;14342;50.960;13.880;2024-01-15T05:40:54;0.70;99.90
26745;DHT22;14342;50.960;13.880;2024-01-15T05:41:57;0.70;99.90
26745;DHT22;14342;50.960;13.880;2024-01-15T05:42:58;0.70;99.90
26745;DHT22;14342;50.960;13.880;2024-01-15T05:43:59;0.80;99.90
26745;DHT22;14342;50.960;13.880;2024-01-15T05:45:00;0.80;99.90
26745;DHT22;14342;50.960;13.880;2024-01-15T05:46:03;0.60;99.90
26745;DHT22;14342;50.960;13.880;2024-01-15T05:47:03;0.50;99.90
26745;DHT22;14342;50.960;13.880;2024-01-15T05:48:05;0.50;99.90
26745;DHT22;14342;50.960;13.880;2024-01-15T05:49:06;0.50;99.90
26745;DHT22;14342;50.960;13.880;2024-01-15T05:50:07;0.50;99.90
26745;DHT22;14342;50.960;13.880;2024-01-15T05:51:08;0.50;99.90
26745;DHT22;14342;50.960;13.880;2024-01-15T05:52:09;0.50;99.90
26745;DHT22;14342;50.960;13.880;2024-01-15T05:53:10;0.50;99.90
26745;DHT22;14342;50.960;13.880;2024-01-15T05:54:11;0.70;99.90
26745;DHT22;14342;50.960;13.880;2024-01-15T05:55:12;0.80;99.90
26745;DHT22;14342;50.960;13.880;2024-01-15T05:56:13;0.70;99.90
26745;DHT22;14342;50.960;13.880;2024-01-15T05:57:15;0.80;99.90
26745;DHT22;14342;50.960;13.880;2024-01-15T05:58:17;0.50;99.90
26745;DHT22;14342;50.960;13.880;2024-01-15T05:59:17;0.50;99.90
26745;DHT22;14342;50.960;13.880;2024-01-15T06:00:19;0.50;99.90
26745;DHT22;14342;50.960;13.880;2024-01-15T06:01:20;0.40;99.90
26745;DHT22;14342;50.960;13.880;2024-01-15T06:02:21;0.40;99.90
26745;DHT22;14342;50.960;13.880;2024-01-15T06:03:22;0.40;99.90
26745;DHT22;14342;50.960;13.880;2024-01-15T06:04:23;0.40;99.90
26745;DHT22;14342;50.960;13.880;2024-01-15T06:05:24;0.40;99.90
26745;DHT22;14342;50.960;13.880;2024-01-15T06:06:26;0.40;99.90
26745;DHT22;14342;50.960;13.880;2024-01-15T06:07:26;0.50;99.90
26745;DHT22;14342;50.960;13.880;2024-01-15T06:08:28;0.50;99.90
26745;DHT22;14342;50.960;13.880;2024-01-15T06:09:28;0.50;99.90
26745;DHT22;14342;50.960;13.880;2024-01-15T06:10:31;0.50;99.90
26745;DHT22;14342;50.960;13.880;2024-01-15T06:11:32;0.50;99.90
26745;DHT22;14342;50.960;13.880;2024-01-15T06:12:34;0.50;99.90
26745;DHT22;14342;50.960;13.880;2024-01-15T06:13:35;0.70;99.90
26745;DHT22;14342;50.960;13.880;2024-01-15T06:14:36;0.40;99.90
26745;DHT22;14342;50.960;13.880;2024-01-15T06:15:38;0.50;99.90
26745;DHT22;14342;50.960;13.880;2024-01-15T06:16:38;0.50;99.90
26745;DHT22;14342;50.960;13.880;2024-01-15T06:17:39;0.50;99.90
26745;DHT22;14342;50.960;13.880;2024-01-15T06:18:40;0.50;99.90
26745;DHT22;14342;50.960;13.880;2024-01-15T06:19:41;0.50;99.90
26745;DHT22;14342;50.960;13.880;2024-01-15T06:20:42;0.40;99.90
26745;DHT22;14342;50.960;13.880;2024-01-15T06:21:43;0.30;99.90
26745;DHT22;14342;50.960;13.880;2024-01-15T06:22:44;0.30;99.90
26745;DHT22;14342;50.960;13.880;2024-01-15T06:23:45;0.30;99.90
26745;DHT22;14342;50.960;13.880;2024-01-15T06:24:46;0.30;99.90
26745;DHT22;14342;50.960;13.880;2024-01-15T06:25:47;0.30;99.90
26745;DHT22;14342;50.960;13.880;2024-01-15T06:26:49;0.30;99.90